Informes de METAR cercanos

 

LEXJ - Santander/Parayas, Spain
Distance from station: ESE 6km
Actualización: 30/11/2021 00:00
Lluvia débil, Muy nuboso
Lluvia débil, Muy nuboso
 Viento del SSO
Viento: SSO 4 km/h
Temperatura: 11°C
Rocío: 10°C
Humedad: 94%
Barómetro: 1024 hPa
Resumen: Lluvia débil
Clouds: Muy nuboso
Visibilidad: 10 km
Cloud details: Few Clouds 305 m
Muy nuboso 518 m
2021/11/29 23:00 LEXJ 292300Z AUTO 20002KT 9999 -RA FEW010 BKN017 11/10 Q1024 RERA
LEBB - Bilbao/Sondica, Spain
Distance from station: ESE 80km
Actualización: 30/11/2021 00:00
Mist, Cubierto
Mist, Cubierto
 Viento del ONO
Viento: ONO 11 km/h
Temperatura: 11°C
Rocío: 11°C
Humedad: 100%
Barómetro: 1024 hPa
Resumen: Mist
Clouds: Cubierto
Visibilidad: 2 km
Cloud details: Cubierto 335 m
2021/11/29 23:00 LEBB 292300Z AUTO 29006KT 250V320 2000 1200NW BR VV011 11/11 Q1024 RERA
 
LEBL - Barcelona Airpor, Spain
Distance from station: ESE 726km
Actualización: 30/11/2021 00:00
Parcialmente nuboso
Parcialmente nuboso
 Viento del NNO
Viento: NNO 19 km/h
Temperatura: 7°C
Temp.Sensacion: 4°C
Rocío: 2°C
Humedad: 71%
Barómetro: 1020 hPa
Clouds: Parcialmente nuboso
Visibilidad: 10 km
Cloud details: Parcialmente nuboso 975 m
Parcialmente nuboso 1524 m
2021/11/29 23:00 LEBL 292300Z 33010KT 9999 SCT032 SCT050 07/02 Q1020 NOSIG
LEMD - Madrid/Barajas, Spain
Distance from station: S 325km
Actualización: 30/11/2021 00:00
Despejado
Despejado
 Viento del NE
Viento: NE 4 km/h
Temperatura: 4°C
Rocío: 2°C
Humedad: 87%
Barómetro: 1023 hPa
Resumen: Despejado
Visibilidad: greater than 10 km
2021/11/29 23:00 LEMD 292300Z 04002KT CAVOK 04/02 Q1023 NOSIG
 
LPPT - Lisbon/Portela, Portugal
Distance from station: SO 663km
Actualización: 30/11/2021 00:00
Muy nuboso
Muy nuboso
 Viento del SO
Viento: SO 7 km/h
Temperatura: 12°C
Rocío: 9°C
Humedad: 82%
Barómetro: 1026 hPa
Clouds: Muy nuboso
Visibilidad: 10 km
Cloud details: Muy nuboso 1280 m
2021/11/29 23:00 LPPT 292300Z 23004KT 9999 BKN042 12/09 Q1026
LECO - La Coruna/Alvedr, Spain
Distance from station: O 349km
Actualización: 30/11/2021 00:00
Parcialmente nuboso
Parcialmente nuboso
 Viento del SE
Viento: SE 7 km/h
Temperatura: 10°C
Temp.Sensacion: 9°C
Rocío: 9°C
Humedad: 94%
Barómetro: 1024 hPa
Clouds: Parcialmente nuboso
Visibilidad: 10 km
Cloud details: Parcialmente nuboso 1036 m
2021/11/29 23:00 LECO 292300Z 14004KT 9999 SCT034 10/09 Q1024 NOSIG
 
LEST - Santiago/Labacol, Spain
Distance from station: O 358km
Actualización: 30/11/2021 00:00
Patches of fog, Parcialmente nuboso
Patches of fog, Parcialmente nuboso
 Viento del SE
Viento: SE 6 km/h
Temperatura: 7°C
Rocío: 7°C
Humedad: 100%
Barómetro: 1025 hPa
Resumen: Patches of Fog
Clouds: Parcialmente nuboso
Visibilidad: 4 km
Cloud details: Few Clouds 30 m
Parcialmente nuboso 762 m
2021/11/29 23:00 LEST 292300Z 14003KT 4000 1500E R17/P2000 R35/1400U BCFG FEW001 SCT025 07/07 Q1025 TEMPO 0500 FG
EBBR - Brussels International Airport, Belgium
Distance from station: O 1339km
Actualización: 30/11/2021 00:20
Despejado
Despejado
 Viento del OSO
Viento: OSO 26 km/h
Temperatura: 4°C
Temp.Sensacion: -1°C
Rocío: 0°C
Humedad: 75%
Barómetro: 1014 hPa
Resumen: Despejado
Visibilidad: greater than 10 km
2021/11/29 23:20 EBBR 292320Z 24014KT CAVOK 04/00 Q1014 NOSIG